Time;durP1;ratioP1;P1;durP2;ratioP2;P2;SDS_P1;SDS_P2;PMS_P1;PMS_P2;Temp;Humidity;BMP_temperature;BMP_pressure;BME280_temperature;BME280_humidity;BME280_pressure;Samples;Min_cycle;Max_cycle;Signal;HPM_P1;HPM_P2
2020/12/20 00:02:00;;;;;;;9.10;6.63;;;9.60;99.90;;;;;;5040276;28;20245;-84
2020/12/20 00:04:26;;;;;;;9.17;6.30;;;9.40;99.90;;;;;;5044679;28;20453;-83
2020/12/20 00:06:54;;;;;;;9.13;6.37;;;9.60;99.90;;;;;;5047339;28;20536;-82
2020/12/20 00:09:22;;;;;;;7.70;5.90;;;9.60;99.90;;;;;;5064404;22;20460;-84
2020/12/20 00:11:50;;;;;;;8.02;6.05;;;9.60;99.90;;;;;;5072720;28;20204;-83
2020/12/20 00:14:29;;;;;;;11.10;6.80;;;9.20;99.90;;;;;;5084470;28;20270;-83
2020/12/20 00:17:01;;;;;;;12.32;6.75;;;9.60;99.90;;;;;;5090107;28;20456;-80
2020/12/20 00:19:28;;;;;;;8.77;6.15;;;9.50;99.90;;;;;;5087725;28;20224;-83
2020/12/20 00:21:58;;;;;;;11.90;7.70;;;9.50;99.90;;;;;;5082032;28;20217;-82
2020/12/20 00:24:25;;;;;;;11.10;7.07;;;9.50;99.90;;;;;;5083151;28;20515;-82
2020/12/20 00:26:52;;;;;;;11.90;7.60;;;9.60;99.90;;;;;;5091064;28;20217;-82
2020/12/20 00:29:19;;;;;;;10.90;7.50;;;9.50;99.90;;;;;;5090713;28;20483;-82
2020/12/20 00:31:45;;;;;;;10.47;6.40;;;9.70;99.90;;;;;;5082087;28;20448;-82
2020/12/20 00:34:12;;;;;;;11.07;7.40;;;9.60;99.90;;;;;;5081186;28;20455;-82
2020/12/20 00:36:42;;;;;;;10.13;7.30;;;9.50;99.90;;;;;;5081016;28;20495;-83
2020/12/20 00:39:09;;;;;;;11.17;6.50;;;9.70;99.90;;;;;;5080857;28;20448;-82
2020/12/20 00:41:35;;;;;;;9.40;7.10;;;9.60;99.90;;;;;;5081389;28;20544;-83
2020/12/20 00:44:02;;;;;;;12.00;6.67;;;9.40;99.90;;;;;;5080183;28;20457;-83
2020/12/20 00:46:29;;;;;;;9.80;7.07;;;9.50;99.90;;;;;;5079362;28;20443;-82
2020/12/20 00:48:55;;;;;;;9.97;7.00;;;9.70;99.90;;;;;;5079586;28;20225;-83
2020/12/20 00:51:22;;;;;;;9.37;7.00;;;9.70;99.90;;;;;;5079812;28;20525;-82
2020/12/20 00:53:48;;;;;;;8.97;6.70;;;9.70;99.90;;;;;;5079613;28;20510;-82
2020/12/20 00:56:16;;;;;;;11.10;7.30;;;9.80;99.90;;;;;;5080676;28;20452;-82
2020/12/20 00:58:42;;;;;;;9.98;6.82;;;9.70;99.90;;;;;;5082647;28;20449;-82
2020/12/20 01:01:10;;;;;;;9.53;6.33;;;9.30;99.90;;;;;;5084406;28;20236;-82
2020/12/20 01:03:37;;;;;;;9.25;6.55;;;9.60;99.90;;;;;;5081051;28;20452;-83
2020/12/20 01:06:04;;;;;;;10.47;6.80;;;9.30;99.90;;;;;;5076133;28;20205;-81
2020/12/20 01:08:31;;;;;;;10.17;6.60;;;9.40;99.90;;;;;;5080508;28;20476;-83
2020/12/20 01:10:57;;;;;;;13.25;7.18;;;9.40;99.90;;;;;;5074768;28;20484;-82
2020/12/20 01:13:25;;;;;;;10.90;5.95;;;9.40;99.90;;;;;;5081375;28;20198;-82
2020/12/20 01:15:52;;;;;;;10.25;6.82;;;9.50;99.90;;;;;;5080743;28;20206;-82
2020/12/20 01:18:18;;;;;;;11.52;7.80;;;9.30;99.90;;;;;;5080922;28;20204;-82
2020/12/20 01:20:45;;;;;;;11.95;7.30;;;9.50;99.90;;;;;;5080829;28;20229;-83
2020/12/20 01:23:11;;;;;;;7.57;6.18;;;9.50;99.90;;;;;;5080818;28;20213;-83
2020/12/20 01:25:38;;;;;;;12.27;7.53;;;9.50;99.90;;;;;;5080879;28;20209;-83
2020/12/20 01:28:04;;;;;;;9.20;7.30;;;9.50;99.90;;;;;;5081455;28;20234;-81
2020/12/20 01:30:32;;;;;;;9.90;6.83;;;9.40;99.90;;;;;;5082286;28;20818;-83
2020/12/20 01:32:58;;;;;;;9.70;7.13;;;9.50;99.90;;;;;;5080532;28;20460;-83
2020/12/20 01:35:25;;;;;;;12.17;6.70;;;9.50;99.90;;;;;;5080645;28;20467;-81
2020/12/20 01:37:51;;;;;;;9.20;6.80;;;9.50;99.90;;;;;;5080262;28;20860;-83
2020/12/20 01:40:18;;;;;;;10.03;6.83;;;9.60;99.90;;;;;;5080683;28;20236;-83
2020/12/20 01:42:45;;;;;;;11.40;7.23;;;9.70;99.90;;;;;;5081563;28;20448;-83
2020/12/20 01:45:11;;;;;;;9.57;6.68;;;9.60;99.90;;;;;;5081402;28;20427;-82
2020/12/20 01:47:39;;;;;;;12.20;7.40;;;9.30;99.90;;;;;;5080955;28;20256;-82
2020/12/20 01:50:05;;;;;;;12.40;7.18;;;9.60;99.90;;;;;;5080614;28;20816;-82
2020/12/20 01:52:32;;;;;;;10.03;7.47;;;9.60;99.90;;;;;;5081311;28;20201;-83
2020/12/20 01:55:00;;;;;;;10.90;6.80;;;9.70;99.90;;;;;;5081433;28;20459;-83
2020/12/20 01:57:27;;;;;;;10.60;7.77;;;9.70;99.90;;;;;;5081937;28;20467;-82
2020/12/20 01:59:54;;;;;;;9.20;6.63;;;9.70;99.90;;;;;;5081118;28;20503;-82
2020/12/20 02:02:21;;;;;;;14.80;7.47;;;9.90;99.90;;;;;;5081226;28;20897;-83
2020/12/20 02:04:48;;;;;;;9.43;7.00;;;9.80;99.90;;;;;;5081346;28;20452;-82
2020/12/20 02:07:15;;;;;;;9.95;6.68;;;9.70;99.90;;;;;;5080072;28;20463;-83
2020/12/20 02:09:44;;;;;;;10.10;7.27;;;9.90;99.90;;;;;;5080398;28;20233;-83
2020/12/20 02:12:11;;;;;;;9.37;6.70;;;10.00;99.90;;;;;;5081279;28;20480;-82
2020/12/20 02:14:38;;;;;;;10.10;6.90;;;9.90;99.90;;;;;;5085871;28;20543;-83
2020/12/20 02:17:05;;;;;;;9.43;6.70;;;9.80;99.90;;;;;;5079912;28;20217;-82
2020/12/20 02:19:32;;;;;;;11.93;6.77;;;9.80;99.90;;;;;;5079269;28;20528;-82
2020/12/20 02:22:00;;;;;;;9.13;6.80;;;9.70;99.90;;;;;;5080145;28;20452;-83
2020/12/20 02:24:26;;;;;;;9.17;6.70;;;9.80;99.90;;;;;;5078601;28;20448;-83
2020/12/20 02:26:53;;;;;;;7.17;5.87;;;9.90;99.90;;;;;;5078225;28;20544;-84
2020/12/20 02:29:20;;;;;;;10.03;7.30;;;10.00;99.90;;;;;;5078834;28;20499;-82
2020/12/20 02:31:46;;;;;;;11.63;6.57;;;9.70;99.90;;;;;;5085181;28;20462;-82
2020/12/20 02:34:13;;;;;;;9.17;6.43;;;9.50;99.90;;;;;;5082850;28;20486;-82
2020/12/20 02:36:39;;;;;;;10.63;6.50;;;9.70;99.90;;;;;;5082031;28;20455;-82
2020/12/20 02:39:08;;;;;;;9.73;6.70;;;9.90;99.90;;;;;;5085525;28;20855;-82
2020/12/20 02:41:35;;;;;;;8.77;6.43;;;9.80;99.90;;;;;;5083004;28;20456;-83
2020/12/20 02:44:02;;;;;;;7.93;5.93;;;9.90;99.90;;;;;;5089654;28;20448;-83
2020/12/20 02:46:30;;;;;;;9.33;6.13;;;9.90;99.90;;;;;;5083435;28;20468;-82
2020/12/20 02:48:57;;;;;;;9.50;6.60;;;10.00;99.90;;;;;;5083349;28;20495;-82
2020/12/20 02:51:23;;;;;;;10.13;6.70;;;10.00;99.90;;;;;;5079440;28;20697;-82
2020/12/20 02:53:50;;;;;;;9.77;6.13;;;10.00;99.90;;;;;;5091994;28;20514;-82
2020/12/20 02:56:19;;;;;;;8.40;5.63;;;10.10;99.90;;;;;;5090139;28;20443;-81
2020/12/20 02:58:46;;;;;;;9.02;6.30;;;10.10;99.90;;;;;;5087199;28;20436;-82
2020/12/20 03:01:16;;;;;;;13.97;6.90;;;10.20;99.90;;;;;;5081999;28;20280;-83
2020/12/20 03:03:42;;;;;;;12.18;8.52;;;10.00;99.90;;;;;;5082134;28;20452;-82
2020/12/20 03:06:09;;;;;;;8.93;6.32;;;10.10;99.90;;;;;;5082552;28;20545;-82
2020/12/20 03:08:36;;;;;;;7.83;5.77;;;10.10;99.90;;;;;;5081380;28;20224;-82
2020/12/20 03:11:02;;;;;;;9.40;6.53;;;9.90;99.90;;;;;;5081884;28;20505;-83
2020/12/20 03:13:30;;;;;;;10.13;6.80;;;9.80;99.90;;;;;;5081296;28;20452;-83
2020/12/20 03:15:56;;;;;;;10.43;6.05;;;9.90;99.90;;;;;;5081404;28;20757;-83
2020/12/20 03:18:23;;;;;;;10.23;6.60;;;9.90;99.90;;;;;;5080177;28;20229;-83
2020/12/20 03:20:50;;;;;;;7.90;6.13;;;10.00;99.90;;;;;;5081922;28;20226;-83
2020/12/20 03:23:16;;;;;;;10.37;7.10;;;9.90;99.90;;;;;;5080660;28;20448;-83
2020/12/20 03:25:43;;;;;;;12.93;6.53;;;9.90;99.90;;;;;;5080635;28;20444;-83
2020/12/20 03:28:09;;;;;;;9.20;6.63;;;9.90;99.90;;;;;;5080356;28;20499;-83
2020/12/20 03:30:36;;;;;;;7.60;6.25;;;9.90;99.90;;;;;;5079719;28;20472;-82
2020/12/20 03:33:03;;;;;;;7.90;5.60;;;9.60;99.90;;;;;;5080348;28;20235;-82
2020/12/20 03:35:30;;;;;;;8.83;6.40;;;9.70;99.90;;;;;;5080774;28;20527;-83
2020/12/20 03:37:57;;;;;;;9.47;5.97;;;10.00;99.90;;;;;;5081047;28;20448;-83
2020/12/20 03:40:25;;;;;;;8.27;6.40;;;9.90;99.90;;;;;;5080153;28;20472;-83
2020/12/20 03:42:51;;;;;;;8.75;6.50;;;9.80;99.90;;;;;;5081218;28;20452;-83
2020/12/20 03:45:19;;;;;;;8.02;5.63;;;9.80;99.90;;;;;;5080233;28;20718;-83
2020/12/20 03:47:47;;;;;;;11.70;7.50;;;9.80;99.90;;;;;;5080385;28;20218;-83
2020/12/20 03:50:14;;;;;;;9.67;6.43;;;9.70;99.90;;;;;;5080688;28;20495;-83
2020/12/20 03:52:41;;;;;;;9.17;5.97;;;9.60;99.90;;;;;;5081052;28;20463;-83
2020/12/20 03:55:08;;;;;;;9.77;6.50;;;9.80;99.90;;;;;;5086432;28;20455;-83
2020/12/20 03:57:34;;;;;;;9.30;6.38;;;9.50;99.90;;;;;;5086015;28;20452;-83
2020/12/20 04:00:01;;;;;;;8.90;6.97;;;9.60;99.90;;;;;;5084909;28;20244;-83
2020/12/20 04:02:27;;;;;;;10.03;7.27;;;9.50;99.90;;;;;;5086474;28;20979;-83
2020/12/20 04:04:55;;;;;;;8.85;6.50;;;9.50;99.90;;;;;;5081513;28;20448;-83
2020/12/20 04:07:21;;;;;;;9.53;6.83;;;9.40;99.90;;;;;;5079954;28;20554;-83
2020/12/20 04:09:48;;;;;;;9.90;6.60;;;9.50;99.90;;;;;;5079926;28;20537;-83
2020/12/20 04:12:15;;;;;;;9.57;7.17;;;9.60;99.90;;;;;;5082241;28;20448;-82
2020/12/20 04:14:43;;;;;;;8.73;6.97;;;9.20;99.90;;;;;;5080952;28;20539;-83
2020/12/20 04:17:09;;;;;;;9.50;7.28;;;9.50;99.90;;;;;;5079297;28;20452;-83
2020/12/20 04:19:36;;;;;;;11.32;7.22;;;9.70;99.90;;;;;;5076873;28;20218;-83
2020/12/20 04:22:03;;;;;;;9.70;7.17;;;9.60;99.90;;;;;;5076969;28;20206;-83
2020/12/20 04:24:30;;;;;;;10.37;7.03;;;9.60;99.90;;;;;;5076213;28;20456;-83
2020/12/20 04:26:57;;;;;;;10.68;7.28;;;9.60;99.90;;;;;;5080202;28;20722;-83
2020/12/20 04:29:23;;;;;;;10.80;7.40;;;9.60;99.90;;;;;;5080157;28;20232;-82
2020/12/20 04:31:50;;;;;;;13.93;7.00;;;9.60;99.90;;;;;;5081284;28;20218;-83
2020/12/20 04:34:16;;;;;;;9.60;6.00;;;9.60;99.90;;;;;;5081171;28;20221;-83
2020/12/20 04:36:43;;;;;;;9.80;7.40;;;9.50;99.90;;;;;;5079080;28;20475;-83
2020/12/20 04:39:10;;;;;;;9.40;6.37;;;9.40;99.90;;;;;;5079176;28;20456;-83
2020/12/20 04:41:37;;;;;;;9.43;6.78;;;9.60;99.90;;;;;;5080181;28;20459;-83
2020/12/20 04:44:03;;;;;;;9.77;6.38;;;9.40;99.90;;;;;;5079998;28;20202;-83
2020/12/20 04:46:32;;;;;;;8.93;6.83;;;9.50;99.90;;;;;;5091515;28;20216;-83
2020/12/20 04:49:00;;;;;;;10.80;6.60;;;9.50;99.90;;;;;;5088667;28;20575;-83
2020/12/20 04:51:28;;;;;;;13.00;7.73;;;9.20;99.90;;;;;;5079339;28;20206;-83
2020/12/20 04:53:58;;;;;;;11.00;7.23;;;9.30;99.90;;;;;;5079344;28;20457;-83
2020/12/20 04:56:28;;;;;;;10.17;6.30;;;9.50;99.90;;;;;;5079299;28;20480;-83
2020/12/20 04:58:57;;;;;;;10.70;7.80;;;9.40;99.90;;;;;;5075678;28;20553;-83
2020/12/20 05:01:23;;;;;;;13.20;7.70;;;9.30;99.90;;;;;;5075453;28;20469;-83
2020/12/20 05:03:50;;;;;;;10.93;7.20;;;9.20;99.90;;;;;;5075673;28;20588;-82
2020/12/20 05:06:18;;;;;;;12.75;7.82;;;9.40;99.90;;;;;;5075411;28;20887;-83
2020/12/20 05:08:44;;;;;;;10.63;7.10;;;9.20;99.90;;;;;;5075039;28;20233;-83
2020/12/20 05:11:32;;;;;;;14.70;7.35;;;9.20;99.90;;;;;;5075323;28;20487;-83
2020/12/20 05:13:59;;;;;;;12.17;7.33;;;9.20;99.90;;;;;;5075057;28;20247;-83
2020/12/20 05:16:33;;;;;;;17.88;7.15;;;9.40;99.90;;;;;;5075603;28;20452;-82
2020/12/20 05:19:02;;;;;;;10.10;6.72;;;9.40;99.90;;;;;;5076016;28;20231;-83
2020/12/20 05:21:29;;;;;;;11.20;7.27;;;9.30;99.90;;;;;;5076042;28;20639;-83
2020/12/20 05:23:57;;;;;;;11.48;7.00;;;9.30;99.90;;;;;;5075340;28;20460;-83
2020/12/20 05:26:28;;;;;;;9.63;6.80;;;9.10;99.90;;;;;;5074858;28;20655;-83
2020/12/20 05:29:07;;;;;;;11.37;6.53;;;9.30;99.90;;;;;;5075052;28;20233;-83
2020/12/20 05:31:34;;;;;;;9.37;6.97;;;9.20;99.90;;;;;;5074381;28;20597;-83
2020/12/20 05:34:00;;;;;;;11.33;6.83;;;9.30;99.90;;;;;;5074845;28;20448;-83
2020/12/20 05:36:28;;;;;;;10.45;6.43;;;9.50;99.90;;;;;;5076911;28;20452;-84
2020/12/20 05:39:10;;;;;;;8.40;6.60;;;9.30;99.90;;;;;;5078944;28;20216;-84
2020/12/20 05:41:37;;;;;;;8.93;6.47;;;9.30;99.90;;;;;;5079782;28;20452;-83
2020/12/20 05:44:16;;;;;;;9.77;7.30;;;9.00;99.90;;;;;;5080285;28;20535;-83
2020/12/20 05:46:44;;;;;;;11.35;6.88;;;9.30;99.90;;;;;;5083735;28;20466;-82
2020/12/20 05:49:14;;;;;;;10.00;7.10;;;9.30;99.90;;;;;;5080977;28;20233;-83
2020/12/20 05:52:01;;;;;;;11.75;6.55;;;9.30;99.90;;;;;;5076997;28;20206;-83
2020/12/20 05:54:31;;;;;;;10.90;6.40;;;9.50;99.90;;;;;;5074426;28;20584;-83
2020/12/20 05:57:08;;;;;;;10.95;7.38;;;9.50;99.90;;;;;;5074199;28;20456;-82
2020/12/20 05:59:36;;;;;;;10.85;6.60;;;9.50;99.90;;;;;;5073973;28;20596;-83
2020/12/20 06:02:04;;;;;;;8.83;6.83;;;9.50;99.90;;;;;;5072773;28;20225;-83
2020/12/20 06:04:32;;;;;;;9.20;7.18;;;9.40;99.90;;;;;;5071422;28;20574;-84
2020/12/20 06:07:00;;;;;;;9.70;6.60;;;9.40;99.90;;;;;;5070756;28;20205;-84
2020/12/20 06:09:27;;;;;;;9.33;7.20;;;9.40;99.90;;;;;;5070420;28;20545;-84
2020/12/20 06:11:55;;;;;;;11.18;6.68;;;9.60;99.90;;;;;;5052479;28;21004;-82
2020/12/20 06:14:25;;;;;;;8.82;6.80;;;9.50;99.90;;;;;;5075304;28;20213;-82
2020/12/20 06:17:13;;;;;;;9.20;6.70;;;9.30;99.90;;;;;;5081285;28;20236;-82
2020/12/20 06:19:58;;;;;;;8.30;6.33;;;9.50;99.90;;;;;;5077341;28;20333;-83
2020/12/20 06:22:29;;;;;;;8.20;6.30;;;9.30;99.90;;;;;;5078075;28;20836;-83
2020/12/20 06:24:57;;;;;;;9.60;7.05;;;9.30;99.90;;;;;;5077571;28;20206;-83
2020/12/20 06:27:26;;;;;;;8.55;6.70;;;9.30;99.90;;;;;;5080096;28;20216;-83
2020/12/20 06:29:55;;;;;;;8.82;5.72;;;9.20;99.90;;;;;;5073680;28;20702;-77
2020/12/20 06:32:30;;;;;;;7.85;6.50;;;9.20;99.90;;;;;;5072695;28;20308;-77
2020/12/20 06:34:59;;;;;;;8.43;6.20;;;9.00;99.90;;;;;;5072429;28;20288;-77
2020/12/20 06:37:26;;;;;;;8.10;6.60;;;9.10;99.90;;;;;;5072970;28;20447;-76
2020/12/20 06:39:53;;;;;;;9.40;6.85;;;9.10;99.90;;;;;;5072138;28;20240;-76
2020/12/20 06:42:39;;;;;;;9.32;6.55;;;9.10;99.90;;;;;;5072529;28;20289;-76
2020/12/20 06:45:13;;;;;;;10.40;5.85;;;9.00;99.90;;;;;;5072581;28;20595;-77
2020/12/20 06:47:42;;;;;;;10.73;7.27;;;9.30;99.90;;;;;;5072367;28;20201;-76
2020/12/20 06:50:08;;;;;;;8.70;6.50;;;9.30;99.90;;;;;;5072068;28;20472;-76
2020/12/20 06:52:45;;;;;;;9.88;6.70;;;9.00;99.90;;;;;;5072473;28;20228;-76
2020/12/20 06:55:19;;;;;;;11.40;7.10;;;9.10;99.90;;;;;;5075800;28;20297;-82
2020/12/20 06:58:09;;;;;;;10.40;7.40;;;9.20;99.90;;;;;;5080225;28;20470;-84
2020/12/20 07:00:49;;;;;;;9.10;5.88;;;9.10;99.90;;;;;;5080818;28;20316;-90
2020/12/20 07:03:38;;;;;;;11.82;6.50;;;9.10;99.90;;;;;;5087997;28;20633;-81
2020/12/20 07:06:15;;;;;;;9.55;6.10;;;9.10;99.90;;;;;;5077777;28;20202;-83
2020/12/20 07:08:42;;;;;;;8.57;6.18;;;9.10;99.90;;;;;;5077584;28;20229;-83
2020/12/20 07:11:20;;;;;;;8.68;7.13;;;9.00;99.90;;;;;;5077664;28;20245;-83
2020/12/20 07:13:48;;;;;;;10.68;7.45;;;9.00;99.90;;;;;;5078428;28;20675;-83
2020/12/20 07:16:16;;;;;;;9.97;6.63;;;9.10;99.90;;;;;;5078274;28;20206;-82
2020/12/20 07:18:55;;;;;;;10.70;6.88;;;9.10;99.90;;;;;;5077302;28;20509;-82
2020/12/20 07:21:46;;;;;;;11.50;7.43;;;8.80;99.90;;;;;;5077460;28;20305;-82
2020/12/20 07:24:17;;;;;;;9.45;7.07;;;9.00;99.90;;;;;;5083990;28;21037;-81
2020/12/20 07:26:44;;;;;;;8.30;6.28;;;8.80;99.90;;;;;;5079296;28;20645;-82
2020/12/20 07:29:11;;;;;;;9.70;6.85;;;9.00;99.90;;;;;;5074399;28;20719;-82
2020/12/20 07:31:37;;;;;;;9.57;6.22;;;8.90;99.90;;;;;;5076996;28;20205;-82
2020/12/20 07:34:06;;;;;;;12.45;6.63;;;8.90;99.90;;;;;;5084362;28;20644;-82
2020/12/20 07:36:32;;;;;;;9.37;6.90;;;8.80;99.90;;;;;;5074193;28;20202;-82
2020/12/20 07:39:00;;;;;;;9.50;6.05;;;9.00;99.90;;;;;;5074503;28;20444;-82
2020/12/20 07:41:27;;;;;;;8.20;6.87;;;9.10;99.90;;;;;;5077179;28;20658;-82
2020/12/20 07:43:54;;;;;;;9.57;6.97;;;9.00;99.90;;;;;;5081857;28;20452;-82
2020/12/20 07:46:21;;;;;;;10.82;7.25;;;9.10;99.90;;;;;;5092513;28;20201;-82
2020/12/20 07:48:48;;;;;;;8.90;7.22;;;8.90;99.90;;;;;;5081306;28;20226;-82
2020/12/20 07:51:17;;;;;;;15.43;6.93;;;9.10;99.90;;;;;;5078881;28;20226;-82
2020/12/20 07:53:46;;;;;;;9.82;6.80;;;8.80;99.90;;;;;;5080653;28;20206;-83
2020/12/20 07:56:24;;;;;;;9.90;7.00;;;8.90;99.90;;;;;;5079255;28;20206;-82
2020/12/20 07:58:52;;;;;;;10.82;6.75;;;8.90;99.90;;;;;;5081474;28;20281;-82
2020/12/20 08:01:19;;;;;;;8.27;6.35;;;8.80;99.90;;;;;;5078667;28;20221;-82
2020/12/20 08:03:45;;;;;;;9.68;6.80;;;8.80;99.90;;;;;;5076465;28;20209;-82
2020/12/20 08:06:14;;;;;;;10.23;6.90;;;9.00;99.90;;;;;;5079655;28;20218;-82
2020/12/20 08:08:44;;;;;;;11.87;8.40;;;8.90;99.90;;;;;;5076198;28;20225;-82
2020/12/20 08:11:22;;;;;;;10.43;6.10;;;9.10;99.90;;;;;;5077150;28;20479;-82
2020/12/20 08:13:56;;;;;;;9.95;6.70;;;9.20;99.90;;;;;;5077030;28;20259;-82
2020/12/20 08:16:25;;;;;;;8.60;6.20;;;9.10;99.90;;;;;;5076626;28;20210;-81
2020/12/20 08:18:57;;;;;;;10.40;6.85;;;9.00;99.90;;;;;;5080603;28;20437;-82
2020/12/20 08:21:45;;;;;;;12.23;7.40;;;9.10;99.90;;;;;;5083245;28;20252;-82
2020/12/20 08:24:22;;;;;;;9.43;6.18;;;9.10;99.90;;;;;;5083973;28;20464;-82
2020/12/20 08:26:49;;;;;;;9.17;7.07;;;9.20;99.90;;;;;;5083495;28;20304;-82
2020/12/20 08:29:18;;;;;;;9.60;7.07;;;9.20;99.90;;;;;;5083344;28;20838;-82
2020/12/20 08:31:45;;;;;;;9.40;6.88;;;9.30;99.90;;;;;;5082301;28;20210;-82
2020/12/20 08:34:17;;;;;;;8.30;6.57;;;9.30;99.90;;;;;;5081517;28;20235;-82
2020/12/20 08:36:46;;;;;;;11.40;7.15;;;9.30;99.90;;;;;;5081836;28;20239;-82
2020/12/20 08:39:14;;;;;;;9.07;6.73;;;9.40;99.90;;;;;;5084721;28;20198;-82
2020/12/20 08:41:41;;;;;;;9.20;7.13;;;9.20;99.90;;;;;;5081998;28;20433;-82
2020/12/20 08:44:09;;;;;;;11.30;6.73;;;9.20;99.90;;;;;;5082773;28;20286;-82
2020/12/20 08:46:38;;;;;;;10.32;6.65;;;9.30;99.90;;;;;;5083529;28;20459;-81
2020/12/20 08:49:12;;;;;;;9.63;7.15;;;9.30;99.90;;;;;;5087825;28;20229;-81
2020/12/20 08:51:39;;;;;;;10.40;7.20;;;9.40;99.90;;;;;;5076726;28;20235;-82
2020/12/20 08:54:05;;;;;;;11.80;7.75;;;9.70;99.90;;;;;;5083496;28;20452;-82
2020/12/20 08:56:32;;;;;;;10.75;7.05;;;9.80;99.90;;;;;;5079426;28;20212;-82
2020/12/20 08:58:59;;;;;;;12.17;7.70;;;9.70;99.90;;;;;;5074084;28;20208;-82
2020/12/20 09:01:40;;;;;;;10.60;7.83;;;9.80;99.90;;;;;;5074269;28;20519;-82
2020/12/20 09:04:10;;;;;;;16.27;7.97;;;10.00;99.90;;;;;;5074382;28;20456;-82
2020/12/20 09:06:36;;;;;;;12.50;8.25;;;9.90;99.90;;;;;;5073102;28;20225;-82
2020/12/20 09:09:04;;;;;;;10.50;7.77;;;9.50;99.90;;;;;;5073355;28;20230;-82
2020/12/20 09:11:30;;;;;;;11.23;6.97;;;9.90;99.90;;;;;;5073677;28;20588;-82
2020/12/20 09:14:09;;;;;;;11.40;7.50;;;9.90;99.90;;;;;;5073497;28;20274;-82
2020/12/20 09:16:41;;;;;;;9.40;7.00;;;9.60;99.90;;;;;;5082602;28;20452;-82
2020/12/20 09:19:10;;;;;;;10.77;7.27;;;9.90;99.90;;;;;;5082009;28;20476;-82
2020/12/20 09:21:37;;;;;;;9.77;7.43;;;10.00;99.90;;;;;;5077899;28;20456;-82
2020/12/20 09:24:03;;;;;;;11.27;7.07;;;10.00;99.90;;;;;;5075419;28;20455;-81
2020/12/20 09:26:30;;;;;;;11.30;8.00;;;10.10;99.90;;;;;;5073133;28;20456;-81
2020/12/20 09:28:57;;;;;;;9.33;7.57;;;10.20;99.90;;;;;;5073871;28;20477;-81
2020/12/20 09:31:27;;;;;;;8.20;6.67;;;10.30;99.90;;;;;;5073849;28;20555;-81
2020/12/20 09:34:00;;;;;;;9.60;6.97;;;10.40;99.90;;;;;;5074098;28;20426;-81
2020/12/20 09:36:27;;;;;;;8.70;6.73;;;10.50;99.90;;;;;;5074263;28;20452;-81
2020/12/20 09:38:55;;;;;;;11.67;7.40;;;10.50;99.90;;;;;;5073091;28;20444;-81
2020/12/20 09:41:23;;;;;;;10.40;7.57;;;10.60;99.90;;;;;;5073130;28;20474;-82
2020/12/20 09:43:51;;;;;;;11.27;7.27;;;10.60;99.90;;;;;;5080044;28;20434;-82
2020/12/20 09:46:23;;;;;;;11.23;8.37;;;10.50;99.90;;;;;;5079830;28;20497;-82
2020/12/20 09:48:50;;;;;;;12.20;6.93;;;10.60;99.90;;;;;;5073260;28;20532;-83
2020/12/20 09:51:17;;;;;;;9.37;6.70;;;10.80;99.90;;;;;;5071961;28;21007;-83
2020/12/20 09:53:44;;;;;;;11.23;6.80;;;10.80;99.90;;;;;;5073005;28;20444;-83
2020/12/20 09:56:12;;;;;;;10.07;7.00;;;10.90;99.90;;;;;;5072165;28;20452;-83
2020/12/20 09:58:39;;;;;;;9.00;7.20;;;10.90;99.90;;;;;;5074385;28;20455;-83
2020/12/20 10:01:06;;;;;;;8.63;6.90;;;10.90;99.90;;;;;;5072489;28;20813;-83
2020/12/20 10:03:33;;;;;;;10.33;6.30;;;10.90;99.90;;;;;;5074283;28;20478;-82
2020/12/20 10:06:00;;;;;;;10.60;7.40;;;10.90;99.90;;;;;;5073795;28;20456;-83
2020/12/20 10:08:27;;;;;;;8.53;6.90;;;11.00;99.90;;;;;;5084054;28;20482;-83
2020/12/20 10:10:55;;;;;;;10.50;7.53;;;11.10;99.90;;;;;;5073792;28;20476;-83
2020/12/20 10:13:22;;;;;;;8.60;7.20;;;11.20;99.90;;;;;;5072464;28;20464;-83
2020/12/20 10:15:49;;;;;;;8.70;7.07;;;11.30;99.90;;;;;;5074164;28;20438;-82
2020/12/20 10:18:16;;;;;;;11.93;6.63;;;11.30;99.90;;;;;;5075718;28;20423;-83
2020/12/20 10:20:43;;;;;;;10.77;6.70;;;11.40;99.90;;;;;;5074378;28;20455;-82
2020/12/20 10:23:10;;;;;;;9.50;6.67;;;11.30;99.90;;;;;;5074734;28;20449;-81
2020/12/20 10:25:37;;;;;;;11.50;7.60;;;11.40;99.90;;;;;;5075586;28;20925;-82
2020/12/20 10:28:03;;;;;;;9.13;6.73;;;11.50;99.90;;;;;;5075770;28;20902;-82
2020/12/20 10:30:30;;;;;;;9.23;7.10;;;11.60;99.90;;;;;;5076046;28;20450;-82
2020/12/20 10:32:56;;;;;;;14.83;6.93;;;11.60;99.90;;;;;;5076324;28;20448;-82
2020/12/20 10:35:24;;;;;;;8.60;6.93;;;11.60;99.90;;;;;;5075837;28;20451;-82
2020/12/20 10:37:52;;;;;;;10.97;7.23;;;11.60;99.90;;;;;;5076372;28;20455;-82
2020/12/20 10:40:19;;;;;;;10.50;7.37;;;11.60;99.90;;;;;;5076183;28;20481;-82
2020/12/20 10:42:47;;;;;;;8.60;6.93;;;11.60;99.90;;;;;;5080125;28;20435;-82
2020/12/20 10:45:15;;;;;;;10.70;7.10;;;11.50;99.90;;;;;;5079817;28;20463;-82
2020/12/20 10:47:42;;;;;;;10.00;6.63;;;11.50;99.90;;;;;;5079534;28;20460;-82
2020/12/20 10:50:09;;;;;;;13.50;7.73;;;11.60;99.90;;;;;;5080470;28;20494;-83
2020/12/20 10:52:35;;;;;;;12.70;8.13;;;11.60;99.90;;;;;;5082323;28;20430;-82
2020/12/20 10:55:04;;;;;;;11.33;7.10;;;11.50;99.90;;;;;;5088086;28;20509;-82
2020/12/20 10:57:31;;;;;;;17.70;7.53;;;11.60;99.90;;;;;;5083612;28;20520;-82
2020/12/20 10:59:58;;;;;;;13.17;8.27;;;11.60;99.90;;;;;;5083303;28;20475;-82
2020/12/20 11:02:27;;;;;;;11.27;7.43;;;11.60;99.90;;;;;;5084021;28;20962;-82
2020/12/20 11:04:54;;;;;;;11.10;8.20;;;11.60;99.90;;;;;;5083833;28;20513;-82
2020/12/20 11:07:20;;;;;;;11.23;7.70;;;11.70;99.90;;;;;;5084524;28;20448;-82
2020/12/20 11:09:47;;;;;;;12.87;8.20;;;11.70;99.90;;;;;;5083761;28;20487;-82
2020/12/20 11:12:14;;;;;;;13.97;7.90;;;11.90;99.90;;;;;;5082690;28;20456;-82
2020/12/20 11:14:40;;;;;;;11.83;7.33;;;12.00;99.90;;;;;;5083174;28;20419;-82
2020/12/20 11:17:07;;;;;;;8.87;7.20;;;11.80;99.90;;;;;;5082923;28;20447;-82
2020/12/20 11:19:33;;;;;;;9.97;7.80;;;11.90;99.90;;;;;;5082385;28;20463;-82
2020/12/20 11:22:00;;;;;;;10.93;7.57;;;12.00;99.90;;;;;;5083089;28;20483;-81
2020/12/20 11:24:27;;;;;;;11.97;7.77;;;12.10;99.90;;;;;;5082724;28;20452;-82
2020/12/20 11:26:54;;;;;;;14.57;8.10;;;12.30;99.90;;;;;;5082880;28;20468;-82
2020/12/20 11:29:22;;;;;;;11.47;7.70;;;12.40;99.90;;;;;;5082969;28;20499;-83
2020/12/20 11:31:49;;;;;;;13.40;8.70;;;12.40;99.90;;;;;;5087945;28;20536;-82
2020/12/20 11:34:17;;;;;;;13.27;8.10;;;12.40;99.90;;;;;;5091506;28;20440;-82
2020/12/20 11:36:43;;;;;;;9.20;7.57;;;12.60;99.90;;;;;;5081466;28;20444;-82
2020/12/20 11:39:12;;;;;;;10.27;7.23;;;12.60;99.90;;;;;;5083949;28;20448;-82
2020/12/20 11:41:39;;;;;;;10.00;7.43;;;12.60;99.90;;;;;;5082942;28;20444;-82
2020/12/20 11:44:06;;;;;;;9.97;7.23;;;12.70;99.90;;;;;;5082721;28;20436;-81
2020/12/20 11:46:34;;;;;;;8.70;6.80;;;12.90;99.90;;;;;;5083556;28;20481;-82
2020/12/20 11:49:01;;;;;;;10.47;6.87;;;12.90;99.90;;;;;;5082177;28;20551;-83
2020/12/20 11:51:27;;;;;;;10.83;6.97;;;12.90;99.90;;;;;;5082043;28;20431;-81
2020/12/20 11:53:55;;;;;;;9.80;7.40;;;12.80;99.90;;;;;;5082655;28;20460;-82
2020/12/20 11:56:22;;;;;;;12.57;7.13;;;12.80;99.90;;;;;;5083054;28;20448;-82
2020/12/20 11:58:49;;;;;;;15.00;9.50;;;12.60;99.90;;;;;;5081974;28;20452;-82
2020/12/20 12:01:21;;;;;;;11.90;7.73;;;12.40;99.90;;;;;;5082730;28;20457;-82
2020/12/20 12:03:49;;;;;;;17.60;8.90;;;12.40;99.90;;;;;;5082903;28;20560;-83
2020/12/20 12:06:16;;;;;;;14.90;8.37;;;12.20;99.90;;;;;;5081527;28;20436;-83
2020/12/20 12:08:44;;;;;;;16.60;9.67;;;12.30;99.90;;;;;;5078462;28;20455;-82
2020/12/20 12:11:11;;;;;;;13.80;10.37;;;12.20;99.90;;;;;;5075893;28;20529;-83
2020/12/20 12:13:38;;;;;;;14.57;11.20;;;12.30;99.90;;;;;;5079054;28;20594;-81
2020/12/20 12:16:05;;;;;;;17.00;11.20;;;12.30;99.90;;;;;;5076274;28;20462;-81
2020/12/20 12:18:31;;;;;;;14.40;10.10;;;12.10;99.90;;;;;;5075700;28;20419;-81
2020/12/20 12:20:59;;;;;;;11.73;8.27;;;12.10;99.90;;;;;;5076471;28;20498;-82
2020/12/20 12:23:25;;;;;;;13.23;8.73;;;12.10;99.90;;;;;;5076977;28;20452;-82
2020/12/20 12:25:54;;;;;;;12.93;8.33;;;12.00;99.90;;;;;;5076284;28;20478;-81
2020/12/20 12:28:21;;;;;;;11.47;8.13;;;11.80;99.90;;;;;;5075725;28;20468;-81
2020/12/20 12:30:48;;;;;;;10.57;7.63;;;11.70;99.90;;;;;;5075366;28;20491;-81
2020/12/20 12:33:14;;;;;;;11.10;7.90;;;11.60;99.90;;;;;;5076079;28;20778;-82
2020/12/20 12:35:41;;;;;;;12.10;8.23;;;11.60;99.90;;;;;;5077329;28;20939;-81
2020/12/20 12:38:08;;;;;;;11.80;8.73;;;11.60;99.90;;;;;;5081267;28;20426;-82
2020/12/20 12:40:35;;;;;;;12.07;8.67;;;11.60;99.90;;;;;;5084504;28;20450;-82
2020/12/20 12:43:01;;;;;;;11.70;7.90;;;11.60;99.90;;;;;;5078970;28;20456;-82
2020/12/20 12:45:28;;;;;;;11.70;8.70;;;11.60;99.90;;;;;;5077513;28;20951;-82
2020/12/20 12:47:54;;;;;;;12.30;9.17;;;11.60;99.90;;;;;;5074927;28;20433;-82
2020/12/20 12:50:21;;;;;;;13.60;8.57;;;11.60;99.90;;;;;;5075586;28;20491;-82
2020/12/20 12:52:47;;;;;;;14.07;9.50;;;11.60;99.90;;;;;;5078132;28;20562;-84
2020/12/20 12:55:15;;;;;;;11.80;8.67;;;11.60;99.90;;;;;;5078831;28;20449;-82